Time;durP1;ratioP1;P1;durP2;ratioP2;P2;SDS_P1;SDS_P2;PMS_P1;PMS_P2;Temp;Humidity;BMP_temperature;BMP_pressure;BME280_temperature;BME280_humidity;BME280_pressure;Samples;Min_cycle;Max_cycle;Signal;HPM_P1;HPM_P2
2022/10/09 00:04:07;;;;;;;8.03;1.67;;;;;;;10.05;100.00;98387.81;18229370;32;20384;-61
2022/10/09 00:14:10;;;;;;;3.70;1.70;;;;;;;10.01;100.00;98382.06;18235724;32;20117;-62
2022/10/09 00:24:12;;;;;;;6.03;2.07;;;;;;;9.96;100.00;98377.44;18238815;32;20085;-62
2022/10/09 00:34:15;;;;;;;3.33;1.50;;;;;;;9.89;100.00;98370.56;18239687;32;20109;-62
2022/10/09 00:44:45;;;;;;;2.57;1.77;;;;;;;9.79;100.00;98361.22;18239239;32;20426;-62
2022/10/09 00:54:48;;;;;;;3.53;1.60;;;;;;;9.70;100.00;98361.91;18238431;32;20084;-62
2022/10/09 01:04:50;;;;;;;4.20;1.40;;;;;;;9.59;100.00;98359.06;18237962;32;20050;-62
2022/10/09 01:15:04;;;;;;;4.13;2.13;;;;;;;9.52;100.00;98352.19;18236606;32;20077;-62
2022/10/09 01:25:12;;;;;;;2.50;1.87;;;;;;;9.53;100.00;98341.13;18237039;32;20055;-62
2022/10/09 01:35:16;;;;;;;3.50;1.70;;;;;;;9.54;100.00;98331.97;18237095;32;20058;-62
2022/10/09 01:45:19;;;;;;;3.15;1.70;;;;;;;9.39;100.00;98324.47;18102349;32;20426;-62
2022/10/09 01:55:45;;;;;;;3.13;1.50;;;;;;;9.13;100.00;98312.44;18101460;32;20089;-62
2022/10/09 02:05:51;;;;;;;2.73;1.63;;;;;;;8.86;100.00;98301.47;18101783;32;20403;-62
2022/10/09 02:16:01;;;;;;;2.80;1.50;;;;;;;8.69;100.00;98288.78;18090303;32;20063;-62
2022/10/09 02:26:04;;;;;;;5.63;2.53;;;;;;;8.44;100.00;98283.69;18100446;32;20426;-62
2022/10/09 02:36:07;;;;;;;3.67;2.00;;;;;;;8.32;100.00;98286.44;18087200;32;20210;-62
2022/10/09 02:46:09;;;;;;;3.80;1.60;;;;;;;8.12;100.00;98276.88;18120693;32;20104;-62
2022/10/09 02:56:12;;;;;;;3.33;1.83;;;;;;;7.95;100.00;98266.06;18232135;32;20433;-62
2022/10/09 03:06:18;;;;;;;9.37;2.23;;;;;;;7.87;100.00;98261.03;18232916;32;20080;-62
2022/10/09 03:16:23;;;;;;;5.37;2.17;;;;;;;7.78;100.00;98260.59;18231470;32;20096;-61
2022/10/09 03:26:26;;;;;;;5.62;2.30;;;;;;;7.70;100.00;98255.59;18232147;32;20054;-62
2022/10/09 03:36:29;;;;;;;5.60;3.07;;;;;;;7.61;100.00;98255.09;18231810;32;20129;-61
2022/10/09 03:46:31;;;;;;;3.90;2.30;;;;;;;7.65;100.00;98255.47;18233001;32;20046;-62
2022/10/09 03:56:34;;;;;;;5.20;2.63;;;;;;;7.52;100.00;98250.31;18241257;32;20062;-62
2022/10/09 04:06:36;;;;;;;4.17;2.20;;;;;;;7.39;100.00;98252.22;18106933;32;20609;-61
2022/10/09 04:16:38;;;;;;;5.90;2.30;;;;;;;7.36;100.00;98255.37;17983118;33;20227;-62
2022/10/09 04:26:40;;;;;;;9.73;4.17;;;;;;;7.46;100.00;98255.59;17982633;33;20069;-62
2022/10/09 04:36:43;;;;;;;7.03;4.63;;;;;;;7.69;100.00;98259.31;18128647;32;20074;-62
2022/10/09 04:46:45;;;;;;;9.37;6.03;;;;;;;7.78;100.00;98251.69;18223860;32;20064;-62
2022/10/09 04:56:47;;;;;;;13.40;7.50;;;;;;;7.93;100.00;98243.94;18238337;32;20071;-62
2022/10/09 05:06:49;;;;;;;11.43;7.80;;;;;;;8.06;100.00;98240.16;18238295;32;20094;-62
2022/10/09 05:16:52;;;;;;;13.80;9.50;;;;;;;8.09;100.00;98244.25;18237909;32;20054;-62
2022/10/09 05:27:14;;;;;;;13.53;8.97;;;;;;;8.18;100.00;98247.34;18155086;32;20066;-62
2022/10/09 05:37:16;;;;;;;11.60;7.77;;;;;;;8.27;100.00;98237.84;18164858;32;20082;-62
2022/10/09 05:47:19;;;;;;;14.43;9.00;;;;;;;8.20;100.00;98239.87;18040088;32;20082;-61
2022/10/09 05:57:21;;;;;;;10.13;7.50;;;;;;;8.22;100.00;98238.56;18088762;32;20078;-62
2022/10/09 06:07:23;;;;;;;9.33;7.20;;;;;;;8.25;100.00;98248.03;18100574;32;20058;-62
2022/10/09 06:17:25;;;;;;;6.67;5.40;;;;;;;8.30;100.00;98250.81;18136575;32;20157;-61
2022/10/09 06:27:28;;;;;;;8.90;7.30;;;;;;;7.93;100.00;98243.94;18162093;32;20074;-62
2022/10/09 06:37:30;;;;;;;8.77;6.47;;;;;;;8.05;100.00;98251.97;18137046;32;20106;-62
2022/10/09 06:47:32;;;;;;;6.87;5.53;;;;;;;8.18;100.00;98264.34;18218366;32;20106;-62
2022/10/09 06:57:35;;;;;;;7.53;4.70;;;;;;;8.14;100.00;98261.31;18233220;32;20054;-62
2022/10/09 07:07:41;;;;;;;7.13;5.80;;;;;;;8.28;100.00;98269.13;18233256;32;20038;-62
2022/10/09 07:17:43;;;;;;;6.20;4.63;;;;;;;8.43;100.00;98268.59;18232553;32;20384;-62
2022/10/09 07:27:45;;;;;;;5.43;4.43;;;;;;;8.44;100.00;98268.34;18229961;32;20047;-62
2022/10/09 07:37:48;;;;;;;6.23;3.90;;;;;;;8.38;100.00;98282.78;18230419;32;20110;-62
2022/10/09 07:47:50;;;;;;;5.47;4.30;;;;;;;8.28;100.00;98274.50;18231204;32;20114;-62
2022/10/09 07:57:52;;;;;;;4.63;4.13;;;;;;;8.50;100.00;98265.75;18230473;32;20110;-61
2022/10/09 08:07:55;;;;;;;7.13;6.03;;;;;;;8.77;100.00;98272.19;18230278;32;20062;-62
2022/10/09 08:17:57;;;;;;;8.07;4.93;;;;;;;9.03;100.00;98269.94;18157599;32;20451;-62
2022/10/09 08:28:00;;;;;;;8.93;5.80;;;;;;;9.06;100.00;98266.75;18144870;32;20142;-62
2022/10/09 08:38:02;;;;;;;8.10;5.13;;;;;;;9.13;100.00;98259.28;18166039;32;20070;-62
2022/10/09 08:48:14;;;;;;;7.13;6.23;;;;;;;9.33;100.00;98257.97;18177164;32;20058;-62
2022/10/09 08:58:20;;;;;;;10.33;7.37;;;;;;;9.57;100.00;98260.47;18238681;32;20392;-62
2022/10/09 09:09:00;;;;;;;10.80;7.13;;;;;;;9.77;100.00;98251.81;18237516;32;20110;-62
2022/10/09 09:19:14;;;;;;;11.07;6.97;;;;;;;9.98;100.00;98244.78;18237758;32;20139;-62
2022/10/09 09:29:22;;;;;;;8.90;7.40;;;;;;;10.38;100.00;98238.22;18236315;32;20058;-62
2022/10/09 09:39:30;;;;;;;14.77;8.97;;;;;;;10.46;100.00;98237.78;18237067;32;20047;-62
2022/10/09 09:50:01;;;;;;;11.73;7.77;;;;;;;10.51;100.00;98218.91;18234684;32;20111;-62
2022/10/09 10:00:20;;;;;;;10.17;7.03;;;;;;;10.72;100.00;98213.69;18235783;32;20042;-62
2022/10/09 10:10:28;;;;;;;15.03;8.03;;;;;;;10.83;100.00;98207.28;18234472;32;20066;-62
2022/10/09 10:20:40;;;;;;;15.90;10.23;;;;;;;10.84;100.00;98206.22;18088138;32;20083;-62
2022/10/09 10:30:43;;;;;;;18.70;12.37;;;;;;;10.98;100.00;98194.94;18087678;32;20075;-62
2022/10/09 10:40:54;;;;;;;18.70;12.63;;;;;;;11.05;100.00;98178.50;18099128;32;20417;-62
2022/10/09 10:51:29;;;;;;;16.20;10.68;;;;;;;11.36;100.00;98174.09;18122931;32;20073;-62
2022/10/09 11:01:49;;;;;;;13.48;8.32;;;;;;;11.71;99.58;98169.91;18233059;32;20109;-62
2022/10/09 11:12:01;;;;;;;7.53;5.50;;;;;;;12.16;97.14;98154.88;18231435;32;20077;-62
2022/10/09 11:22:41;;;;;;;8.27;5.07;;;;;;;12.64;96.54;98143.78;18231245;32;20502;-62
2022/10/09 11:32:54;;;;;;;9.52;5.22;;;;;;;13.16;96.91;98130.16;18232159;32;20058;-62
2022/10/09 11:43:02;;;;;;;4.07;2.67;;;;;;;13.79;96.68;98118.81;18231785;32;20058;-62
2022/10/09 11:53:07;;;;;;;3.10;2.08;;;;;;;14.31;87.35;98104.91;18158381;32;20080;-63
2022/10/09 12:03:34;;;;;;;3.92;2.17;;;;;;;14.69;86.82;98097.78;18158680;32;20067;-63
2022/10/09 12:13:40;;;;;;;3.08;1.92;;;;;;;15.24;86.95;98088.53;18168052;32;20082;-64
2022/10/09 12:23:46;;;;;;;4.20;2.37;;;;;;;15.45;80.87;98071.94;18228630;32;20102;-63
2022/10/09 12:34:04;;;;;;;4.15;2.37;;;;;;;15.91;80.76;98060.44;18239725;32;20077;-63
2022/10/09 12:44:21;;;;;;;5.07;2.10;;;;;;;16.10;77.18;98046.75;18238494;32;20050;-63
2022/10/09 12:54:25;;;;;;;4.72;1.87;;;;;;;16.20;76.51;98030.22;18237101;32;20073;-64
2022/10/09 13:04:33;;;;;;;2.85;1.62;;;;;;;15.96;77.32;98022.16;18237227;32;20047;-63
2022/10/09 13:14:45;;;;;;;5.03;1.92;;;;;;;15.68;78.17;98002.91;18166104;32;20086;-63
2022/10/09 13:24:52;;;;;;;3.10;1.75;;;;;;;15.41;74.98;97992.66;18164655;32;20123;-63
2022/10/09 13:34:56;;;;;;;3.30;1.90;;;;;;;15.16;78.26;97972.03;18164999;32;20074;-63
2022/10/09 13:44:59;;;;;;;2.60;2.05;;;;;;;15.03;80.21;97965.37;18067276;32;20063;-64
2022/10/09 13:55:04;;;;;;;3.30;2.03;;;;;;;14.87;80.22;97959.34;18101676;32;20105;-64
2022/10/09 14:05:07;;;;;;;2.80;1.70;;;;;;;14.75;81.50;97943.41;18076470;32;20488;-64
2022/10/09 14:15:10;;;;;;;2.70;1.70;;;;;;;14.72;83.76;97933.09;18207929;32;20069;-64
2022/10/09 14:25:13;;;;;;;3.17;1.98;;;;;;;14.78;82.27;97926.47;18235107;32;20091;-63
2022/10/09 14:35:16;;;;;;;2.87;1.93;;;;;;;14.68;83.96;97923.91;18233273;32;20362;-63
2022/10/09 14:45:22;;;;;;;3.65;2.40;;;;;;;14.60;84.80;97919.87;18233979;32;20077;-64
2022/10/09 14:55:25;;;;;;;6.15;3.33;;;;;;;14.37;85.36;97916.84;18233449;32;20446;-63
2022/10/09 15:05:29;;;;;;;4.85;3.20;;;;;;;14.16;85.91;97907.31;18233330;32;20077;-63
2022/10/09 15:15:32;;;;;;;4.18;2.53;;;;;;;14.13;87.15;97900.53;18231583;32;20066;-63
2022/10/09 15:25:35;;;;;;;4.70;3.05;;;;;;;14.14;89.97;97891.28;18232099;32;20419;-63
2022/10/09 15:35:39;;;;;;;7.77;3.30;;;;;;;14.17;88.75;97885.25;18231547;32;20050;-63
2022/10/09 15:45:42;;;;;;;5.20;3.00;;;;;;;14.13;89.26;97873.31;18237666;32;20074;-63
2022/10/09 15:55:49;;;;;;;6.23;3.17;;;;;;;14.00;89.00;97866.66;18241353;32;20054;-63
2022/10/09 16:05:53;;;;;;;3.47;3.10;;;;;;;13.85;88.20;97862.19;18239799;32;20062;-63
2022/10/09 16:15:57;;;;;;;4.05;2.58;;;;;;;13.76;89.77;97858.47;18239925;32;20047;-63
2022/10/09 16:26:01;;;;;;;5.40;3.87;;;;;;;13.66;92.22;97847.69;18240433;32;20071;-63
2022/10/09 16:36:11;;;;;;;3.67;3.00;;;;;;;13.43;92.62;97843.81;18239771;32;20062;-63
2022/10/09 16:46:21;;;;;;;4.25;3.08;;;;;;;13.17;94.98;97847.50;18238079;32;20070;-63
2022/10/09 16:56:28;;;;;;;3.67;2.95;;;;;;;12.97;95.48;97853.06;18237414;32;20535;-63
2022/10/09 17:06:31;;;;;;;4.87;3.67;;;;;;;12.82;96.78;97845.84;18237485;32;20106;-63
2022/10/09 17:16:40;;;;;;;6.03;3.70;;;;;;;12.78;97.45;97855.62;18236809;32;20058;-63
2022/10/09 17:26:45;;;;;;;6.50;3.42;;;;;;;12.77;98.40;97868.38;18237459;32;20099;-63
2022/10/09 17:36:48;;;;;;;4.15;3.40;;;;;;;12.67;98.90;97871.12;18237469;32;20050;-63
2022/10/09 17:46:51;;;;;;;6.35;4.00;;;;;;;12.52;99.45;97869.31;18235768;32;20085;-63
2022/10/09 17:56:54;;;;;;;5.35;3.78;;;;;;;12.47;100.00;97872.03;18236378;32;20070;-63
2022/10/09 18:06:57;;;;;;;5.47;3.65;;;;;;;12.36;99.79;97876.69;18235278;32;20423;-63
2022/10/09 18:17:00;;;;;;;7.40;4.20;;;;;;;12.21;100.00;97880.28;18235404;32;20058;-63
2022/10/09 18:27:03;;;;;;;8.02;4.22;;;;;;;12.11;100.00;97872.94;18234036;32;20090;-63
2022/10/09 18:37:06;;;;;;;6.70;3.58;;;;;;;12.10;100.00;97879.47;18233386;32;20404;-63
2022/10/09 18:47:13;;;;;;;4.37;3.42;;;;;;;12.08;100.00;97875.41;18233093;32;20140;-63
2022/10/09 18:57:16;;;;;;;5.45;3.80;;;;;;;11.97;100.00;97877.34;18233851;32;20050;-63
2022/10/09 19:07:18;;;;;;;5.43;3.60;;;;;;;11.92;100.00;97864.59;18233045;32;20050;-63
2022/10/09 19:17:21;;;;;;;5.05;3.53;;;;;;;11.91;100.00;97864.84;18232673;32;20059;-63
2022/10/09 19:27:24;;;;;;;5.57;3.62;;;;;;;11.80;100.00;97858.63;18232537;32;20394;-63
2022/10/09 19:37:27;;;;;;;5.03;3.97;;;;;;;11.66;100.00;97859.19;18218318;32;20069;-63
2022/10/09 19:47:31;;;;;;;5.10;3.72;;;;;;;11.54;100.00;97855.97;18230818;32;20069;-63
2022/10/09 19:57:33;;;;;;;5.97;3.92;;;;;;;11.42;100.00;97850.00;18230676;32;20118;-63
2022/10/09 20:07:36;;;;;;;5.97;3.50;;;;;;;11.40;100.00;97844.87;18229272;32;20058;-63
2022/10/09 20:17:39;;;;;;;6.50;3.42;;;;;;;11.35;100.00;97848.38;18230030;32;20108;-63
2022/10/09 20:27:42;;;;;;;5.20;3.80;;;;;;;11.29;100.00;97846.75;18232100;32;20106;-63
2022/10/09 20:37:44;;;;;;;4.68;3.50;;;;;;;11.18;100.00;97856.75;18238799;32;20114;-63
2022/10/09 20:47:48;;;;;;;8.90;4.12;;;;;;;11.07;100.00;97854.31;18239180;32;20404;-63
2022/10/09 20:57:52;;;;;;;4.82;3.90;;;;;;;11.02;100.00;97855.12;18238679;32;20046;-63
2022/10/09 21:07:57;;;;;;;6.07;3.75;;;;;;;10.92;100.00;97855.09;18238325;32;20058;-63
2022/10/09 21:18:00;;;;;;;8.40;3.90;;;;;;;10.79;100.00;97851.00;18238387;32;20446;-63
2022/10/09 21:28:03;;;;;;;4.32;3.65;;;;;;;10.76;100.00;97859.66;18237554;32;20494;-63
2022/10/09 21:38:11;;;;;;;4.30;3.22;;;;;;;10.73;100.00;97857.47;18236332;32;20097;-63
2022/10/09 21:48:15;;;;;;;5.18;3.15;;;;;;;10.66;100.00;97861.25;18227345;32;20096;-63
2022/10/09 21:58:17;;;;;;;6.90;4.83;;;;;;;10.67;100.00;97867.47;18227468;32;20431;-63
2022/10/09 22:08:21;;;;;;;9.85;6.60;;;;;;;10.59;100.00;97866.09;18226631;32;20063;-63
2022/10/09 22:18:23;;;;;;;7.50;5.25;;;;;;;10.55;100.00;97862.31;18227473;32;20078;-63
2022/10/09 22:28:25;;;;;;;9.60;5.93;;;;;;;10.56;100.00;97855.78;18221348;32;20062;-63
2022/10/09 22:38:28;;;;;;;9.65;5.87;;;;;;;10.62;100.00;97862.88;18100055;32;20074;-63
2022/10/09 22:48:31;;;;;;;6.87;4.80;;;;;;;10.70;100.00;97861.50;18087103;32;20083;-63
2022/10/09 22:58:34;;;;;;;6.65;5.10;;;;;;;10.77;100.00;97851.28;18086438;32;20066;-63
2022/10/09 23:08:37;;;;;;;5.37;3.92;;;;;;;10.85;100.00;97850.75;18002255;32;20115;-63
2022/10/09 23:18:41;;;;;;;6.85;3.92;;;;;;;10.91;100.00;97856.16;18160523;32;20100;-63
2022/10/09 23:28:51;;;;;;;5.87;4.15;;;;;;;10.95;100.00;97838.31;18159794;32;20090;-63
2022/10/09 23:38:55;;;;;;;4.47;3.60;;;;;;;10.97;100.00;97847.78;18218239;32;20076;-62
2022/10/09 23:48:57;;;;;;;7.40;3.67;;;;;;;10.99;100.00;97851.06;18231359;32;20103;-62
2022/10/09 23:59:01;;;;;;;6.30;3.72;;;;;;;11.00;100.00;97847.28;18230905;32;20065;-62
